Time;durP1;ratioP1;P1;durP2;ratioP2;P2;SDS_P1;SDS_P2;PMS_P1;PMS_P2;Temp;Humidity;BMP_temperature;BMP_pressure;BME280_temperature;BME280_humidity;BME280_pressure;Samples;Min_cycle;Max_cycle;Signal;HPM_P1;HPM_P2
2022/08/19 00:01:43;;;;;;;9.95;4.35;;;;;;;20.83;53.14;100506.63;5035834;28;20100;-79
2022/08/19 00:04:24;;;;;;;4.50;3.97;;;;;;;20.77;53.14;100507.66;5034584;28;20049;-78
2022/08/19 00:06:52;;;;;;;5.25;4.10;;;;;;;20.74;53.26;100506.91;5034637;28;20103;-77
2022/08/19 00:09:21;;;;;;;5.95;3.97;;;;;;;20.75;53.03;100517.47;5034101;28;20422;-79
2022/08/19 00:11:49;;;;;;;8.07;4.60;;;;;;;20.71;52.94;100510.50;5034100;28;20053;-77
2022/08/19 00:14:16;;;;;;;6.30;3.60;;;;;;;20.72;52.97;100520.22;5033829;28;20065;-77
2022/08/19 00:16:45;;;;;;;7.15;3.97;;;;;;;20.73;52.83;100515.75;5034024;28;20057;-78
2022/08/19 00:19:13;;;;;;;5.75;3.90;;;;;;;20.63;52.84;100508.06;5033862;28;20053;-78
2022/08/19 00:21:43;;;;;;;7.15;3.85;;;;;;;20.73;52.77;100532.56;5033931;28;20053;-78
2022/08/19 00:24:13;;;;;;;8.73;3.83;;;;;;;20.72;52.65;100533.47;5032126;28;20057;-77
2022/08/19 00:26:42;;;;;;;6.50;3.95;;;;;;;20.72;52.86;100544.09;5033824;28;20052;-77
2022/08/19 00:29:13;;;;;;;5.38;3.88;;;;;;;20.61;52.77;100527.59;5016357;28;20424;-79
2022/08/19 00:31:45;;;;;;;5.72;3.78;;;;;;;20.62;52.51;100540.81;5032949;28;20060;-79
2022/08/19 00:34:14;;;;;;;8.20;3.80;;;;;;;20.55;52.76;100527.75;5035262;28;20061;-82
2022/08/19 00:36:47;;;;;;;10.25;3.83;;;;;;;20.54;52.70;100541.91;5035750;28;20425;-81
2022/08/19 00:39:40;;;;;;;8.18;4.45;;;;;;;20.53;53.00;100556.09;5026815;28;20517;-77
2022/08/19 00:42:28;;;;;;;4.93;3.40;;;;;;;20.50;53.12;100550.84;5035700;28;20115;-81
2022/08/19 00:45:20;;;;;;;5.88;3.70;;;;;;;20.42;53.14;100565.22;5026564;28;20092;-78
2022/08/19 00:47:47;;;;;;;7.55;3.60;;;;;;;20.40;53.28;100544.94;5033689;28;20089;-78
2022/08/19 00:50:18;;;;;;;7.18;3.90;;;;;;;20.28;53.16;100535.50;5033269;28;20064;-78
2022/08/19 00:52:47;;;;;;;7.38;4.20;;;;;;;20.32;53.24;100546.91;5033759;28;20111;-78
2022/08/19 00:55:19;;;;;;;7.65;4.05;;;;;;;20.35;53.19;100566.28;5033184;28;20083;-80
2022/08/19 00:57:54;;;;;;;6.10;3.45;;;;;;;20.10;53.34;100522.72;5035282;28;20053;-79
2022/08/19 01:00:22;;;;;;;6.82;3.67;;;;;;;20.30;53.05;100554.91;5033946;28;20061;-77
2022/08/19 01:02:50;;;;;;;8.88;3.70;;;;;;;20.31;53.38;100561.09;5033759;28;20524;-78
2022/08/19 01:05:22;;;;;;;7.68;3.50;;;;;;;20.30;53.17;100554.03;5033359;28;20053;-77
2022/08/19 01:08:11;;;;;;;7.32;3.60;;;;;;;20.21;53.08;100544.53;5033772;28;20153;-78
2022/08/19 01:11:15;;;;;;;8.93;3.72;;;;;;;20.12;53.25;100529.72;5034251;28;20072;-78
2022/08/19 01:14:09;;;;;;;10.05;3.60;;;;;;;20.16;53.38;100542.00;5034037;28;20060;-76
2022/08/19 01:16:38;;;;;;;4.18;3.40;;;;;;;20.16;53.48;100544.66;5033137;28;20087;-78
2022/08/19 01:19:18;;;;;;;6.97;3.60;;;;;;;20.15;53.08;100537.59;5032836;28;20057;-76
2022/08/19 01:21:50;;;;;;;;;;;;;;;19.98;53.52;100555.72;5032279;28;20052;-79
2022/08/19 01:24:17;;;;;;;5.90;3.15;;;;;;;20.08;53.44;100549.28;5032982;28;19932;-77
2022/08/19 01:26:47;;;;;;;11.98;3.95;;;;;;;20.02;53.58;100526.44;5032814;28;20045;-78
2022/08/19 01:29:14;;;;;;;3.67;2.80;;;;;;;20.11;53.55;100559.84;5032504;28;20089;-78
2022/08/19 01:31:42;;;;;;;7.78;3.30;;;;;;;20.09;53.55;100574.91;5032987;28;20053;-76
2022/08/19 01:34:10;;;;;;;5.78;3.60;;;;;;;19.98;53.84;100580.47;5032526;28;20060;-77
2022/08/19 01:36:45;;;;;;;5.70;3.42;;;;;;;20.01;53.45;100568.91;5032117;28;20056;-77
2022/08/19 01:39:18;;;;;;;7.78;3.75;;;;;;;20.02;53.64;100582.09;5032728;28;20053;-77
2022/08/19 01:41:47;;;;;;;5.55;3.70;;;;;;;19.90;53.77;100555.06;5032784;28;20088;-78
2022/08/19 01:44:15;;;;;;;5.50;3.47;;;;;;;19.95;53.71;100579.66;5032521;28;20501;-79
2022/08/19 01:46:47;;;;;;;6.85;3.38;;;;;;;19.96;53.90;100586.69;5032903;28;20156;-78
2022/08/19 01:49:17;;;;;;;4.20;3.40;;;;;;;19.90;53.95;100578.91;5032389;28;20061;-78
2022/08/19 01:51:44;;;;;;;;;;;;;;;19.66;54.18;100573.25;5032988;28;20049;-78
2022/08/19 01:54:13;;;;;;;8.38;3.20;;;;;;;19.80;54.24;100571.16;5032480;28;20356;-78
2022/08/19 01:57:01;;;;;;;6.40;3.50;;;;;;;19.80;54.02;100567.63;5038111;28;20053;-77
2022/08/19 01:59:29;;;;;;;6.50;3.75;;;;;;;19.82;54.00;100564.03;5045050;28;20116;-78
2022/08/19 02:01:56;;;;;;;7.57;3.47;;;;;;;19.88;53.99;100573.63;5034702;28;20061;-78
2022/08/19 02:04:25;;;;;;;6.60;3.20;;;;;;;19.69;54.16;100532.53;5032560;28;20575;-78
2022/08/19 02:06:52;;;;;;;7.73;3.30;;;;;;;19.78;54.15;100567.66;5032539;28;20140;-78
2022/08/19 02:09:19;;;;;;;7.57;3.42;;;;;;;19.73;54.23;100563.41;5032350;28;20060;-79
2022/08/19 02:11:46;;;;;;;7.97;3.40;;;;;;;19.56;54.35;100542.53;5032446;28;20053;-78
2022/08/19 02:14:13;;;;;;;6.65;3.55;;;;;;;19.66;54.39;100570.59;5031161;28;20061;-78
2022/08/19 02:16:40;;;;;;;8.43;3.30;;;;;;;19.61;54.58;100560.06;5032561;28;20061;-77
2022/08/19 02:19:07;;;;;;;4.15;3.63;;;;;;;19.64;54.82;100569.75;5032575;28;20527;-77
2022/08/19 02:21:35;;;;;;;7.10;3.33;;;;;;;19.37;54.87;100535.00;5032523;28;20064;-77
2022/08/19 02:24:03;;;;;;;4.68;3.28;;;;;;;19.54;54.94;100569.06;5032473;28;20060;-77
2022/08/19 02:26:31;;;;;;;7.32;3.42;;;;;;;19.53;54.99;100572.66;5032208;28;20049;-78
2022/08/19 02:29:00;;;;;;;6.65;3.30;;;;;;;19.30;55.07;100533.41;5032696;28;20056;-77
2022/08/19 02:31:27;;;;;;;6.60;3.10;;;;;;;19.49;55.21;100564.78;5030933;28;20152;-76
2022/08/19 02:33:56;;;;;;;6.93;3.67;;;;;;;19.44;55.41;100556.94;5031171;28;20053;-77
2022/08/19 02:36:25;;;;;;;7.32;3.70;;;;;;;19.49;55.28;100560.38;5032360;28;20049;-77
2022/08/19 02:38:52;;;;;;;8.00;3.10;;;;;;;19.50;55.47;100570.03;5032357;28;20061;-76
2022/08/19 02:41:27;;;;;;;5.30;3.03;;;;;;;19.46;55.28;100578.97;5032029;28;20077;-78
2022/08/19 02:43:56;;;;;;;5.20;3.30;;;;;;;19.52;55.15;100581.47;5032524;28;20057;-78
2022/08/19 02:46:46;;;;;;;5.85;3.65;;;;;;;19.47;55.60;100588.66;5033516;28;20491;-77
2022/08/19 02:49:15;;;;;;;8.27;3.20;;;;;;;19.48;55.42;100590.41;5035820;28;20060;-76
2022/08/19 02:51:45;;;;;;;7.03;3.75;;;;;;;19.54;55.50;100600.88;5035280;28;20469;-77
2022/08/19 02:54:13;;;;;;;7.95;3.25;;;;;;;19.58;55.23;100593.72;5035561;28;20050;-78
2022/08/19 02:56:42;;;;;;;6.25;3.30;;;;;;;19.61;55.26;100586.56;5035593;28;20107;-77
2022/08/19 02:59:10;;;;;;;5.20;3.20;;;;;;;19.65;55.08;100582.09;5034532;28;20413;-77
2022/08/19 03:01:40;;;;;;;8.45;3.58;;;;;;;19.74;54.98;100587.19;5036164;28;20049;-76
2022/08/19 03:04:15;;;;;;;6.60;3.38;;;;;;;19.76;54.86;100593.34;5037285;28;20107;-78
2022/08/19 03:06:45;;;;;;;5.75;3.67;;;;;;;19.77;55.06;100599.53;5037588;28;20095;-79
2022/08/19 03:09:13;;;;;;;8.27;3.75;;;;;;;19.74;54.88;100578.38;5036728;28;20430;-77
2022/08/19 03:11:40;;;;;;;10.52;3.50;;;;;;;19.88;54.82;100600.16;5035971;28;20065;-78
2022/08/19 03:14:09;;;;;;;8.77;3.63;;;;;;;19.72;54.59;100557.19;5035749;28;20517;-78
2022/08/19 03:16:47;;;;;;;6.45;3.58;;;;;;;19.93;54.53;100600.91;5035079;28;20050;-79
2022/08/19 03:19:18;;;;;;;6.95;3.72;;;;;;;19.96;54.68;100603.50;5035446;28;20057;-80
2022/08/19 03:21:46;;;;;;;6.32;3.30;;;;;;;20.02;54.45;100592.72;5035957;28;20505;-78
2022/08/19 03:24:13;;;;;;;6.57;3.70;;;;;;;20.03;54.28;100578.56;5034903;28;20103;-78
2022/08/19 03:26:42;;;;;;;5.53;3.30;;;;;;;20.19;53.93;100584.34;5035013;28;20053;-78
2022/08/19 03:29:11;;;;;;;6.13;3.20;;;;;;;20.00;53.72;100540.63;5034089;28;20072;-78
2022/08/19 03:31:40;;;;;;;7.27;3.30;;;;;;;20.33;53.73;100568.09;5035096;28;20064;-78
2022/08/19 03:34:25;;;;;;;4.47;3.30;;;;;;;20.48;53.20;100568.59;5034960;28;20536;-78
2022/08/19 03:36:55;;;;;;;4.35;3.67;;;;;;;20.81;52.41;100567.72;5035196;28;20049;-78
2022/08/19 03:39:24;;;;;;;7.20;3.70;;;;;;;21.28;51.06;100570.81;5034790;28;20060;-77
2022/08/19 03:41:52;;;;;;;8.13;3.70;;;;;;;21.72;49.93;100586.34;5034828;28;20062;-77
2022/08/19 03:44:42;;;;;;;11.48;3.40;;;;;;;22.38;48.31;100576.25;5034799;28;20054;-78
2022/08/19 03:47:08;;;;;;;6.35;3.75;;;;;;;22.73;47.61;100592.78;5033489;28;20502;-78
2022/08/19 03:49:36;;;;;;;6.75;3.35;;;;;;;22.96;46.94;100602.63;5034029;28;20123;-79
2022/08/19 03:52:07;;;;;;;4.63;3.33;;;;;;;22.51;47.21;100547.41;5034461;28;20046;-77
2022/08/19 03:54:35;;;;;;;5.53;3.08;;;;;;;22.45;47.88;100585.75;5034325;28;20073;-77
2022/08/19 03:57:02;;;;;;;6.00;3.38;;;;;;;22.15;48.73;100582.31;5034173;28;20049;-78
2022/08/19 03:59:33;;;;;;;8.15;3.70;;;;;;;22.07;48.71;100561.28;5033319;28;20077;-77
2022/08/19 04:02:09;;;;;;;6.78;3.55;;;;;;;22.11;49.00;100593.09;5034206;28;20136;-79
2022/08/19 04:04:39;;;;;;;6.72;3.17;;;;;;;22.06;49.13;100599.44;5031808;28;20128;-78
2022/08/19 04:07:06;;;;;;;;;;;;;;;21.69;50.04;100589.13;5034516;28;20139;-80
2022/08/19 04:09:34;;;;;;;7.43;4.25;;;;;;;21.79;49.88;100585.25;5030692;28;19925;-79
2022/08/19 04:12:01;;;;;;;5.43;3.30;;;;;;;21.91;49.50;100593.75;5031936;28;20057;-78
2022/08/19 04:14:33;;;;;;;6.75;3.50;;;;;;;21.99;49.73;100589.06;5033433;28;20053;-76
2022/08/19 04:17:04;;;;;;;6.18;3.53;;;;;;;22.12;49.44;100600.19;5041584;28;20520;-77
2022/08/19 04:19:34;;;;;;;5.05;3.50;;;;;;;22.03;49.28;100607.53;5044596;28;20053;-77
2022/08/19 04:22:02;;;;;;;8.15;3.95;;;;;;;21.96;49.21;100603.34;5052529;28;20063;-78
2022/08/19 04:24:30;;;;;;;6.25;3.70;;;;;;;21.99;49.65;100608.56;5051960;28;20398;-78
2022/08/19 04:26:59;;;;;;;3.70;3.40;;;;;;;22.04;49.48;100606.59;5051146;28;20049;-78
2022/08/19 04:29:27;;;;;;;6.50;3.42;;;;;;;22.05;49.42;100607.50;5051930;28;20471;-79
2022/08/19 04:31:55;;;;;;;5.25;3.65;;;;;;;22.07;49.32;100606.50;5053080;28;20053;-79
2022/08/19 04:34:25;;;;;;;5.57;3.50;;;;;;;22.02;49.61;100621.72;5053543;28;20068;-79
2022/08/19 04:36:53;;;;;;;;;;;;;;;21.80;50.00;100628.66;5053851;28;20078;-79
2022/08/19 04:42:38;;;;;;;7.15;3.63;;;;;;;21.99;49.71;100623.66;5053540;28;19925;-78
2022/08/19 04:44:58;;;;;;;8.57;3.45;;;;;;;22.24;49.24;100615.75;5053409;28;20048;-79
2022/08/19 04:47:26;;;;;;;4.30;3.35;;;;;;;22.35;48.82;100599.44;5053243;28;20049;-78
2022/08/19 04:50:13;;;;;;;8.50;3.72;;;;;;;22.56;48.59;100608.47;5053189;28;20049;-78
2022/08/19 04:52:44;;;;;;;7.88;3.65;;;;;;;22.73;48.14;100615.88;5053733;28;20563;-77
2022/08/19 04:55:13;;;;;;;4.80;3.65;;;;;;;22.72;47.82;100603.50;5052044;28;20088;-77
2022/08/19 04:57:40;;;;;;;7.88;3.33;;;;;;;22.40;48.41;100569.09;5053128;28;20053;-80
2022/08/19 05:00:11;;;;;;;4.05;3.65;;;;;;;22.65;48.36;100618.81;5053074;28;20055;-77
2022/08/19 05:02:38;;;;;;;7.28;3.50;;;;;;;22.62;48.73;100608.28;5052145;28;20059;-77
2022/08/19 05:05:06;;;;;;;7.82;3.95;;;;;;;22.56;48.66;100589.84;5053086;28;20041;-79
2022/08/19 05:07:34;;;;;;;6.47;3.53;;;;;;;22.61;48.61;100607.41;5052929;28;20493;-78
2022/08/19 05:10:02;;;;;;;8.32;3.97;;;;;;;22.45;49.10;100585.75;5052679;28;20063;-78
2022/08/19 05:12:29;;;;;;;5.57;3.67;;;;;;;22.64;48.50;100601.97;5052816;28;20492;-78
2022/08/19 05:14:58;;;;;;;7.47;4.43;;;;;;;22.68;48.41;100589.44;5052912;28;20067;-77
2022/08/19 05:17:26;;;;;;;5.22;3.60;;;;;;;22.79;48.55;100595.22;5051321;28;20057;-78
2022/08/19 05:22:46;;;;;;;7.68;4.30;;;;;;;23.16;47.49;100601.06;5053410;28;20401;-79
2022/08/19 05:25:19;;;;;;;8.77;4.10;;;;;;;23.28;47.63;100597.94;5052877;28;20060;-77
2022/08/19 05:27:47;;;;;;;7.50;4.07;;;;;;;23.68;46.61;100591.94;5052773;28;20493;-76
2022/08/19 05:30:15;;;;;;;6.82;4.10;;;;;;;23.82;45.99;100609.22;5052540;28;20052;-78
2022/08/19 05:32:43;;;;;;;7.15;4.50;;;;;;;23.68;46.18;100596.38;5052658;28;20060;-76
2022/08/19 05:35:11;;;;;;;4.50;4.05;;;;;;;23.63;46.21;100611.72;5050778;28;20485;-78
2022/08/19 05:37:41;;;;;;;6.68;3.58;;;;;;;23.68;46.51;100617.72;5031257;28;20046;-79
2022/08/19 05:40:09;;;;;;;7.32;3.60;;;;;;;23.94;45.92;100586.50;5032699;28;20063;-79
2022/08/19 05:42:37;;;;;;;5.75;3.80;;;;;;;24.12;45.18;100613.31;5031351;28;20096;-80
2022/08/19 05:45:06;;;;;;;7.25;4.05;;;;;;;24.08;45.56;100635.72;5032415;28;20501;-78
2022/08/19 05:47:34;;;;;;;6.55;3.72;;;;;;;24.09;45.65;100621.47;5032746;28;20059;-78
2022/08/19 05:50:08;;;;;;;6.57;4.00;;;;;;;24.24;45.39;100609.28;5036841;28;20112;-79
2022/08/19 05:52:38;;;;;;;10.15;4.40;;;;;;;24.27;45.46;100608.28;5035980;28;20057;-79
2022/08/19 05:55:15;;;;;;;9.85;4.60;;;;;;;24.27;45.51;100618.97;5039529;28;20085;-79
2022/08/19 05:57:43;;;;;;;6.78;4.63;;;;;;;24.12;45.84;100613.31;5032972;28;20053;-77
2022/08/19 06:00:11;;;;;;;9.20;4.47;;;;;;;24.10;45.79;100625.84;5032399;28;20084;-77
2022/08/19 06:02:39;;;;;;;10.30;4.72;;;;;;;24.15;45.69;100596.31;5032294;28;20057;-78
2022/08/19 06:05:08;;;;;;;9.40;5.10;;;;;;;24.27;45.48;100611.81;5032839;28;20091;-76
2022/08/19 06:07:36;;;;;;;8.40;4.70;;;;;;;24.01;46.24;100623.56;5014904;28;20076;-79
2022/08/19 06:10:07;;;;;;;6.65;4.55;;;;;;;23.77;46.51;100609.41;5032384;28;20525;-79
2022/08/19 06:12:35;;;;;;;9.85;4.32;;;;;;;23.87;46.79;100618.78;5032009;28;20199;-76
2022/08/19 06:15:13;;;;;;;7.78;4.82;;;;;;;23.95;46.38;100634.47;5031251;28;20107;-77
2022/08/19 06:17:41;;;;;;;8.50;4.40;;;;;;;23.87;46.60;100632.09;5031508;28;20054;-79
2022/08/19 06:20:13;;;;;;;6.05;4.80;;;;;;;23.95;46.99;100626.47;5030316;28;20403;-77
2022/08/19 06:22:42;;;;;;;11.27;5.18;;;;;;;23.82;47.14;100618.09;5033892;28;20053;-77
2022/08/19 06:25:11;;;;;;;7.15;4.40;;;;;;;23.77;47.08;100622.75;5034620;28;20148;-78
2022/08/19 06:27:39;;;;;;;9.48;4.80;;;;;;;23.68;47.31;100615.94;5035778;28;20080;-77
2022/08/19 06:30:26;;;;;;;7.82;4.18;;;;;;;23.75;47.18;100616.56;5035108;28;20041;-78
2022/08/19 06:32:53;;;;;;;6.78;4.40;;;;;;;23.83;47.26;100611.84;5033790;28;20053;-78
2022/08/19 06:35:21;;;;;;;6.90;3.95;;;;;;;24.07;46.97;100626.00;5034739;28;20148;-78
2022/08/19 06:37:48;;;;;;;9.15;4.13;;;;;;;24.07;46.73;100628.66;5034491;28;20053;-78
2022/08/19 06:40:15;;;;;;;10.07;4.47;;;;;;;24.05;46.51;100624.31;5033305;28;20133;-78
2022/08/19 06:42:42;;;;;;;11.60;4.82;;;;;;;24.13;46.82;100627.53;5033322;28;20144;-78
2022/08/19 06:45:22;;;;;;;6.25;4.18;;;;;;;24.12;46.44;100613.31;5034774;28;20144;-79
2022/08/19 06:47:59;;;;;;;7.65;4.25;;;;;;;24.35;46.45;100626.63;5034317;28;20096;-78
2022/08/19 06:50:27;;;;;;;6.00;3.90;;;;;;;24.37;45.21;100647.03;5032641;28;20408;-79
2022/08/19 06:52:54;;;;;;;9.32;4.88;;;;;;;24.41;45.25;100611.22;5034565;28;20072;-79
2022/08/19 06:55:21;;;;;;;9.65;4.35;;;;;;;24.78;44.76;100617.72;5034221;28;20049;-78
2022/08/19 06:57:52;;;;;;;8.15;4.20;;;;;;;25.10;43.49;100608.28;5034527;28;20053;-78
2022/08/19 07:00:20;;;;;;;6.05;3.88;;;;;;;25.14;43.18;100588.50;5034380;28;20050;-78
2022/08/19 07:02:48;;;;;;;8.13;4.20;;;;;;;25.45;42.91;100613.84;5033807;28;20076;-79
2022/08/19 07:05:23;;;;;;;8.30;4.03;;;;;;;25.51;42.22;100618.00;5034403;28;20577;-78
2022/08/19 07:07:50;;;;;;;8.02;4.07;;;;;;;25.58;41.73;100616.81;5033976;28;20075;-78
2022/08/19 07:10:18;;;;;;;8.80;4.18;;;;;;;25.60;41.54;100632.75;5033994;28;20112;-78
2022/08/19 07:12:46;;;;;;;4.45;3.90;;;;;;;25.80;41.73;100629.16;4990564;28;1247718;-77
2022/08/19 07:15:15;;;;;;;7.50;4.20;;;;;;;25.79;41.00;100601.53;5034988;28;20053;-77
2022/08/19 07:17:43;;;;;;;5.38;3.53;;;;;;;26.04;40.64;100637.84;5035070;28;20501;-76
2022/08/19 07:20:12;;;;;;;4.95;3.30;;;;;;;26.03;40.47;100634.31;5034316;28;20057;-79
2022/08/19 07:22:39;;;;;;;11.93;4.18;;;;;;;25.81;40.80;100588.94;5034988;28;20050;-77
2022/08/19 07:25:08;;;;;;;9.55;4.43;;;;;;;25.93;40.70;100609.78;5035103;28;20064;-81
2022/08/19 07:27:37;;;;;;;5.78;4.32;;;;;;;25.99;40.27;100597.06;5034840;28;20057;-78
2022/08/19 07:30:07;;;;;;;7.65;4.40;;;;;;;25.90;40.61;100585.00;5035020;28;20057;-77
2022/08/19 07:32:39;;;;;;;4.70;3.90;;;;;;;26.29;39.65;100624.13;5034611;28;20076;-77
2022/08/19 07:35:07;;;;;;;5.03;4.03;;;;;;;26.28;39.31;100617.88;5034798;28;20139;-78
2022/08/19 07:37:36;;;;;;;11.10;4.00;;;;;;;26.36;39.55;100620.19;5034450;28;20432;-77
2022/08/19 07:40:06;;;;;;;7.28;3.75;;;;;;;26.35;39.42;100630.03;5034695;28;20111;-79
2022/08/19 07:42:34;;;;;;;9.00;4.22;;;;;;;26.33;39.53;100639.09;5034799;28;20053;-77
2022/08/19 07:45:01;;;;;;;8.40;4.15;;;;;;;26.41;39.80;100636.88;5033701;28;20049;-78
2022/08/19 07:47:29;;;;;;;8.98;4.10;;;;;;;26.67;39.13;100637.41;5033484;28;20053;-77
2022/08/19 07:50:19;;;;;;;7.63;4.07;;;;;;;26.43;39.01;100613.56;5033933;28;20100;-79
2022/08/19 07:52:48;;;;;;;11.05;4.85;;;;;;;26.35;39.25;100648.78;5034320;28;20073;-78
2022/08/19 07:55:18;;;;;;;10.23;3.75;;;;;;;26.34;39.65;100636.31;5033768;28;20061;-78
2022/08/19 07:58:05;;;;;;;8.07;4.22;;;;;;;26.32;39.45;100607.88;5033517;28;20045;-80
2022/08/19 08:00:32;;;;;;;13.27;4.20;;;;;;;26.09;39.88;100615.28;5033654;28;20053;-77
2022/08/19 08:02:59;;;;;;;7.70;3.92;;;;;;;26.43;39.57;100623.41;5034571;28;20472;-78
2022/08/19 08:10:59;;;;;;;5.55;4.05;;;;;;;26.23;39.96;100651.19;5034635;28;20469;-81
2022/08/19 08:13:27;;;;;;;5.00;4.00;;;;;;;25.97;39.58;100631.91;5034284;28;20068;-80
2022/08/19 08:15:55;;;;;;;4.80;3.67;;;;;;;25.81;40.42;100621.03;5034141;28;20057;-79
2022/08/19 08:18:24;;;;;;;10.77;4.63;;;;;;;25.72;40.88;100643.75;5033887;28;20464;-78
2022/08/19 08:20:57;;;;;;;12.57;4.60;;;;;;;25.61;41.20;100646.06;5019027;28;20050;-80
2022/08/19 08:23:25;;;;;;;9.00;4.63;;;;;;;25.78;40.94;100631.91;5022342;28;20064;-79
2022/08/19 08:25:57;;;;;;;6.50;4.07;;;;;;;25.93;40.20;100638.34;5040575;28;20095;-80
2022/08/19 08:28:27;;;;;;;4.95;3.65;;;;;;;25.81;40.10;100658.50;5037077;28;20046;-79
2022/08/19 08:30:59;;;;;;;6.78;3.75;;;;;;;25.83;39.42;100626.31;5025811;28;20089;-79
2022/08/19 08:33:29;;;;;;;7.97;4.00;;;;;;;25.98;38.82;100644.34;5033783;28;20115;-78
2022/08/19 08:36:01;;;;;;;15.80;4.28;;;;;;;26.14;38.32;100636.47;5033957;28;20136;-78
2022/08/19 08:38:31;;;;;;;7.40;3.60;;;;;;;26.19;38.56;100634.41;5033920;28;20053;-81
2022/08/19 08:41:33;;;;;;;10.23;4.50;;;;;;;26.15;38.88;100632.81;5033353;28;20088;-79
2022/08/19 08:44:04;;;;;;;6.88;3.70;;;;;;;26.20;38.23;100656.69;5033524;28;20073;-81
2022/08/19 08:46:41;;;;;;;6.90;3.70;;;;;;;25.95;38.31;100629.31;5033701;28;20057;-79
2022/08/19 08:49:59;;;;;;;9.10;3.50;;;;;;;25.85;37.27;100638.69;5033535;28;20049;-82
2022/08/19 08:52:30;;;;;;;9.32;3.58;;;;;;;25.85;36.37;100661.91;5024343;28;20080;-79
2022/08/19 08:55:04;;;;;;;8.23;3.38;;;;;;;25.63;36.46;100643.34;5034464;28;20100;-79
2022/08/19 08:57:59;;;;;;;5.85;3.25;;;;;;;25.81;36.09;100646.94;5036984;28;20137;-81
2022/08/19 09:00:32;;;;;;;7.47;3.40;;;;;;;25.80;36.26;100639.88;5030391;28;20148;-80
2022/08/19 09:03:05;;;;;;;4.88;3.50;;;;;;;25.81;36.01;100625.53;5033482;28;20107;-81
2022/08/19 09:05:53;;;;;;;7.78;3.65;;;;;;;25.51;36.40;100584.13;5031631;28;20430;-80
2022/08/19 09:08:39;;;;;;;12.43;3.58;;;;;;;25.87;33.98;100642.16;5033465;28;20527;-82
2022/08/19 09:11:23;;;;;;;9.63;3.33;;;;;;;25.54;33.35;100602.69;5032879;28;20487;-82
2022/08/19 09:14:31;;;;;;;7.30;3.30;;;;;;;25.90;32.86;100646.56;5033946;28;20111;-79
2022/08/19 09:17:17;;;;;;;10.80;3.70;;;;;;;25.99;33.12;100624.69;5033570;28;20079;-78
2022/08/19 09:19:55;;;;;;;5.57;3.60;;;;;;;26.14;32.86;100629.28;5033292;28;20413;-81
2022/08/19 09:22:22;;;;;;;9.30;3.50;;;;;;;26.30;32.44;100656.16;5034638;28;20053;-81
2022/08/19 09:24:53;;;;;;;7.15;3.55;;;;;;;26.25;31.83;100670.72;5032638;28;20060;-79
2022/08/19 09:27:23;;;;;;;8.85;3.40;;;;;;;26.00;32.36;100637.09;5032715;28;20053;-79
2022/08/19 09:30:14;;;;;;;6.93;3.40;;;;;;;25.94;32.22;100657.03;5033110;28;20088;-79
2022/08/19 09:32:42;;;;;;;8.65;3.38;;;;;;;26.13;32.02;100656.97;5032792;28;20049;-80
2022/08/19 09:35:10;;;;;;;6.13;3.00;;;;;;;25.84;31.74;100625.41;5032914;28;20053;-80
2022/08/19 09:37:38;;;;;;;5.93;3.30;;;;;;;25.99;31.07;100656.81;5031959;28;20045;-79
2022/08/19 09:40:07;;;;;;;3.53;3.13;;;;;;;25.87;30.76;100701.03;5032782;28;20045;-79
2022/08/19 09:42:38;;;;;;;8.50;3.33;;;;;;;25.84;31.02;100682.44;5033086;28;20061;-80
2022/08/19 09:45:22;;;;;;;8.30;3.00;;;;;;;25.88;30.92;100653.75;5033656;28;20413;-77
2022/08/19 09:47:52;;;;;;;7.38;3.35;;;;;;;26.26;31.05;100662.59;5032873;28;20473;-78
2022/08/19 09:50:22;;;;;;;5.80;3.20;;;;;;;26.27;30.14;100669.72;5040989;28;20057;-79
2022/08/19 09:52:49;;;;;;;4.93;3.37;;;;;;;26.39;30.54;100675.41;5034583;28;20113;-77
2022/08/19 09:55:25;;;;;;;3.60;3.03;;;;;;;26.22;30.54;100636.94;5032908;28;20072;-78
2022/08/19 09:58:00;;;;;;;6.05;3.40;;;;;;;26.36;30.93;100655.84;5036323;28;20050;-78
2022/08/19 10:00:27;;;;;;;8.23;3.55;;;;;;;26.43;31.62;100679.66;5035677;28;20509;-77
2022/08/19 10:02:54;;;;;;;7.18;3.50;;;;;;;26.42;31.79;100672.59;5035901;28;20091;-78
2022/08/19 10:08:11;;;;;;;6.38;3.65;;;;;;;26.25;32.89;100684.97;5035818;28;20108;-76
2022/08/19 10:10:43;;;;;;;6.53;4.10;;;;;;;26.26;32.56;100692.06;5036349;28;20144;-78
2022/08/19 10:13:17;;;;;;;4.47;3.80;;;;;;;26.38;32.37;100700.47;5036000;28;20131;-79
2022/08/19 10:15:44;;;;;;;7.03;4.38;;;;;;;26.43;31.85;100690.38;5036617;28;20419;-78
2022/08/19 10:18:17;;;;;;;9.73;3.97;;;;;;;26.55;32.08;100687.94;5036470;28;20057;-78
2022/08/19 10:20:45;;;;;;;5.05;3.80;;;;;;;26.63;31.85;100644.75;5035867;28;20060;-78
2022/08/19 10:23:20;;;;;;;5.78;3.22;;;;;;;26.88;32.13;100676.47;5036124;28;20061;-77
2022/08/19 10:25:49;;;;;;;5.57;3.80;;;;;;;26.84;32.45;100682.09;5036135;28;20049;-76
2022/08/19 10:28:16;;;;;;;7.82;3.78;;;;;;;26.81;31.48;100663.50;5036130;28;20049;-76
2022/08/19 10:30:49;;;;;;;3.80;3.17;;;;;;;26.90;31.01;100701.41;5035154;28;20084;-78
2022/08/19 10:33:16;;;;;;;4.05;3.40;;;;;;;26.63;31.62;100692.97;5036544;28;20054;-80
2022/08/19 10:36:10;;;;;;;5.90;3.38;;;;;;;26.52;31.68;100692.59;5035170;28;20143;-80
2022/08/19 10:38:38;;;;;;;8.68;3.83;;;;;;;26.63;30.97;100697.44;5036029;28;20053;-79
2022/08/19 10:41:23;;;;;;;8.55;3.80;;;;;;;26.67;31.09;100701.69;5037315;28;20077;-77
2022/08/19 10:43:56;;;;;;;6.32;3.40;;;;;;;26.56;31.41;100678.13;5036354;28;20076;-79
2022/08/19 10:46:32;;;;;;;9.23;3.38;;;;;;;26.55;31.21;100684.41;5036839;28;20057;-80
2022/08/19 10:49:04;;;;;;;6.57;3.72;;;;;;;26.52;30.81;100706.88;5038474;28;20460;-79
2022/08/19 10:54:18;;;;;;;7.78;3.80;;;;;;;26.48;30.91;100702.59;5034828;28;20060;-78
2022/08/19 10:56:59;;;;;;;6.65;3.47;;;;;;;26.65;31.09;100696.44;5037105;28;20049;-80
2022/08/19 10:59:29;;;;;;;7.13;3.60;;;;;;;26.61;30.93;100694.84;5035651;28;20063;-78
2022/08/19 11:02:04;;;;;;;4.03;3.17;;;;;;;26.56;31.50;100696.88;5036420;28;20049;-79
2022/08/19 11:04:33;;;;;;;9.77;3.72;;;;;;;26.66;31.34;100687.44;5036166;28;20528;-79
2022/08/19 11:07:04;;;;;;;6.20;3.47;;;;;;;26.72;30.87;100676.41;5035309;28;20579;-79
2022/08/19 11:09:31;;;;;;;;;;;;;;;26.60;31.21;100692.25;5034620;28;20099;-80
2022/08/19 11:12:00;;;;;;;9.85;3.20;;;;;;;26.29;31.34;100638.38;5033920;28;19947;-77
2022/08/19 11:14:32;;;;;;;7.47;3.80;;;;;;;26.65;31.25;100674.13;5035495;28;20064;-79
2022/08/19 11:17:01;;;;;;;6.28;3.83;;;;;;;26.87;31.41;100682.81;5035325;28;20524;-76
2022/08/19 11:19:28;;;;;;;7.10;3.58;;;;;;;26.92;31.70;100693.28;5035620;28;20520;-79
2022/08/19 11:21:55;;;;;;;7.97;3.30;;;;;;;26.90;31.52;100701.41;5034944;28;20041;-78
2022/08/19 11:24:27;;;;;;;5.03;3.40;;;;;;;26.98;31.48;100684.06;5035147;28;20060;-80
2022/08/19 11:27:00;;;;;;;6.53;3.40;;;;;;;26.92;31.50;100679.88;5034565;28;20498;-80
2022/08/19 11:29:28;;;;;;;8.70;3.58;;;;;;;26.67;31.94;100686.50;5035240;28;20053;-79
2022/08/19 11:31:55;;;;;;;3.78;3.42;;;;;;;26.71;32.32;100680.03;5035006;28;20084;-78
2022/08/19 11:34:28;;;;;;;7.57;3.30;;;;;;;26.80;31.95;100677.81;5033802;28;20055;-81
2022/08/19 11:36:58;;;;;;;7.85;3.50;;;;;;;27.06;31.97;100684.50;5034979;28;20057;-78
2022/08/19 11:39:28;;;;;;;5.55;3.42;;;;;;;26.96;31.77;100685.00;5035213;28;20122;-79
2022/08/19 11:41:55;;;;;;;5.40;3.22;;;;;;;26.97;31.74;100677.81;5034381;28;20480;-79
2022/08/19 11:44:23;;;;;;;6.50;3.28;;;;;;;27.01;31.70;100686.56;5034679;28;20111;-79
2022/08/19 11:46:52;;;;;;;8.95;3.55;;;;;;;26.94;31.76;100672.63;5035675;28;20065;-79
2022/08/19 11:49:20;;;;;;;7.78;3.45;;;;;;;26.84;31.90;100644.56;5042503;28;20045;-80
2022/08/19 11:51:50;;;;;;;8.33;3.20;;;;;;;26.82;31.94;100681.28;5034350;28;20524;-79
2022/08/19 11:54:19;;;;;;;6.72;3.10;;;;;;;26.54;32.07;100632.66;5034472;28;20286;-78
2022/08/19 11:56:48;;;;;;;11.18;3.85;;;;;;;26.86;32.25;100672.16;5034310;28;20057;-78
2022/08/19 11:59:16;;;;;;;6.70;3.33;;;;;;;26.74;32.39;100637.00;5035114;28;20083;-79
2022/08/19 12:01:43;;;;;;;5.15;3.58;;;;;;;26.89;32.27;100688.97;5032825;28;20447;-78
2022/08/19 12:04:10;;;;;;;6.53;3.25;;;;;;;26.71;32.63;100663.94;5034301;28;20151;-78